sensor_id;sensor_type;location;lat;lon;timestamp;pressure;altitude;pressure_sealevel;temperature;humidity
10014;BME280;45684;48.358;10.746;2022-10-16T00:01:43;96213.84;;;13.66;100.00
10014;BME280;45684;48.358;10.746;2022-10-16T00:04:10;96214.31;;;13.68;100.00
10014;BME280;45684;48.358;10.746;2022-10-16T00:06:39;96223.28;;;13.68;100.00
10014;BME280;45684;48.358;10.746;2022-10-16T00:09:07;96215.47;;;13.67;100.00
10014;BME280;45684;48.358;10.746;2022-10-16T00:11:38;96209.56;;;13.65;100.00
10014;BME280;45684;48.358;10.746;2022-10-16T00:14:09;96208.31;;;13.62;100.00
10014;BME280;45684;48.358;10.746;2022-10-16T00:16:38;96205.34;;;13.55;100.00
10014;BME280;45684;48.358;10.746;2022-10-16T00:19:06;96213.13;;;13.57;100.00
10014;BME280;45684;48.358;10.746;2022-10-16T00:21:34;96214.63;;;13.54;100.00
10014;BME280;45684;48.358;10.746;2022-10-16T00:24:04;96213.25;;;13.48;100.00
10014;BME280;45684;48.358;10.746;2022-10-16T00:26:33;96208.47;;;13.45;100.00
10014;BME280;45684;48.358;10.746;2022-10-16T00:29:03;96218.19;;;13.46;100.00
10014;BME280;45684;48.358;10.746;2022-10-16T00:31:31;96218.06;;;13.42;100.00
10014;BME280;45684;48.358;10.746;2022-10-16T00:33:59;96217.75;;;13.44;100.00
10014;BME280;45684;48.358;10.746;2022-10-16T00:36:27;96218.75;;;13.39;100.00
10014;BME280;45684;48.358;10.746;2022-10-16T00:38:56;96220.53;;;13.35;100.00
10014;BME280;45684;48.358;10.746;2022-10-16T00:41:31;96221.78;;;13.38;100.00
10014;BME280;45684;48.358;10.746;2022-10-16T00:44:01;96230.53;;;13.43;100.00
10014;BME280;45684;48.358;10.746;2022-10-16T00:46:35;96234.56;;;13.37;100.00
10014;BME280;45684;48.358;10.746;2022-10-16T00:49:07;96233.78;;;13.37;100.00
10014;BME280;45684;48.358;10.746;2022-10-16T00:51:39;96227.75;;;13.31;100.00
10014;BME280;45684;48.358;10.746;2022-10-16T00:54:09;96230.81;;;13.30;100.00
10014;BME280;45684;48.358;10.746;2022-10-16T00:56:37;96239.94;;;13.25;100.00
10014;BME280;45684;48.358;10.746;2022-10-16T00:59:13;96234.53;;;13.25;100.00
10014;BME280;45684;48.358;10.746;2022-10-16T01:01:43;96234.97;;;13.27;100.00
10014;BME280;45684;48.358;10.746;2022-10-16T01:04:11;96223.47;;;13.30;100.00
10014;BME280;45684;48.358;10.746;2022-10-16T01:06:44;96223.59;;;13.34;100.00
10014;BME280;45684;48.358;10.746;2022-10-16T01:09:17;96224.03;;;13.36;100.00
10014;BME280;45684;48.358;10.746;2022-10-16T01:11:56;96223.69;;;13.37;100.00
10014;BME280;45684;48.358;10.746;2022-10-16T01:14:33;96223.38;;;13.39;100.00
10014;BME280;45684;48.358;10.746;2022-10-16T01:17:10;96218.28;;;13.37;100.00
10014;BME280;45684;48.358;10.746;2022-10-16T01:19:54;96219.53;;;13.40;100.00
10014;BME280;45684;48.358;10.746;2022-10-16T01:22:38;96204.81;;;13.41;100.00
10014;BME280;45684;48.358;10.746;2022-10-16T01:25:12;96206.75;;;13.40;100.00
10014;BME280;45684;48.358;10.746;2022-10-16T01:27:46;96212.97;;;13.41;100.00
10014;BME280;45684;48.358;10.746;2022-10-16T01:30:18;96203.25;;;13.40;100.00
10014;BME280;45684;48.358;10.746;2022-10-16T01:32:50;96214.31;;;13.35;100.00
10014;BME280;45684;48.358;10.746;2022-10-16T01:35:23;96214.50;;;13.30;100.00
10014;BME280;45684;48.358;10.746;2022-10-16T01:37:56;96209.09;;;13.30;100.00
10014;BME280;45684;48.358;10.746;2022-10-16T01:40:27;96210.66;;;13.31;100.00
10014;BME280;45684;48.358;10.746;2022-10-16T01:43:00;96201.25;;;13.28;100.00
10014;BME280;45684;48.358;10.746;2022-10-16T01:45:31;96205.88;;;13.27;100.00
10014;BME280;45684;48.358;10.746;2022-10-16T01:48:00;96206.22;;;13.26;100.00
10014;BME280;45684;48.358;10.746;2022-10-16T01:50:31;96216.16;;;13.22;100.00
10014;BME280;45684;48.358;10.746;2022-10-16T01:53:02;96212.34;;;13.14;100.00
10014;BME280;45684;48.358;10.746;2022-10-16T01:55:33;96215.75;;;13.11;100.00
10014;BME280;45684;48.358;10.746;2022-10-16T01:58:07;96215.25;;;13.09;100.00
10014;BME280;45684;48.358;10.746;2022-10-16T02:00:37;96220.38;;;13.11;100.00
10014;BME280;45684;48.358;10.746;2022-10-16T02:03:07;96234.28;;;13.09;100.00
10014;BME280;45684;48.358;10.746;2022-10-16T02:05:39;96227.47;;;13.03;100.00
10014;BME280;45684;48.358;10.746;2022-10-16T02:08:08;96233.53;;;13.00;100.00
10014;BME280;45684;48.358;10.746;2022-10-16T02:10:37;96221.09;;;12.99;100.00
10014;BME280;45684;48.358;10.746;2022-10-16T02:13:10;96217.25;;;13.00;100.00
10014;BME280;45684;48.358;10.746;2022-10-16T02:15:41;96212.75;;;13.04;100.00
10014;BME280;45684;48.358;10.746;2022-10-16T02:18:09;96207.19;;;13.00;100.00
10014;BME280;45684;48.358;10.746;2022-10-16T02:20:44;96209.09;;;13.00;100.00
10014;BME280;45684;48.358;10.746;2022-10-16T02:23:17;96209.59;;;13.02;100.00
10014;BME280;45684;48.358;10.746;2022-10-16T02:25:47;96215.81;;;13.02;100.00
10014;BME280;45684;48.358;10.746;2022-10-16T02:28:22;96218.19;;;13.04;100.00
10014;BME280;45684;48.358;10.746;2022-10-16T02:30:55;96216.59;;;13.03;100.00
10014;BME280;45684;48.358;10.746;2022-10-16T02:33:25;96219.75;;;13.05;100.00
10014;BME280;45684;48.358;10.746;2022-10-16T02:35:55;96218.19;;;13.04;100.00
10014;BME280;45684;48.358;10.746;2022-10-16T02:38:24;96230.03;;;12.99;100.00
10014;BME280;45684;48.358;10.746;2022-10-16T02:40:52;96228.59;;;13.02;100.00
10014;BME280;45684;48.358;10.746;2022-10-16T02:43:22;96229.25;;;12.99;100.00
10014;BME280;45684;48.358;10.746;2022-10-16T02:45:50;96230.56;;;12.93;100.00
10014;BME280;45684;48.358;10.746;2022-10-16T02:48:18;96233.13;;;12.89;100.00
10014;BME280;45684;48.358;10.746;2022-10-16T02:50:45;96233.94;;;12.90;100.00
10014;BME280;45684;48.358;10.746;2022-10-16T02:53:13;96239.16;;;12.95;100.00
10014;BME280;45684;48.358;10.746;2022-10-16T02:55:41;96231.69;;;12.92;100.00
10014;BME280;45684;48.358;10.746;2022-10-16T02:58:09;96231.69;;;12.92;100.00
10014;BME280;45684;48.358;10.746;2022-10-16T03:00:38;96234.41;;;12.92;100.00
10014;BME280;45684;48.358;10.746;2022-10-16T03:03:06;96243.34;;;12.92;100.00
10014;BME280;45684;48.358;10.746;2022-10-16T03:05:33;96235.66;;;12.94;100.00
10014;BME280;45684;48.358;10.746;2022-10-16T03:08:01;96241.88;;;12.95;100.00
10014;BME280;45684;48.358;10.746;2022-10-16T03:10:29;96236.44;;;12.95;100.00
10014;BME280;45684;48.358;10.746;2022-10-16T03:12:57;96242.34;;;12.97;100.00
10014;BME280;45684;48.358;10.746;2022-10-16T03:15:24;96235.78;;;12.98;100.00
10014;BME280;45684;48.358;10.746;2022-10-16T03:17:53;96242.03;;;12.98;100.00
10014;BME280;45684;48.358;10.746;2022-10-16T03:20:21;96243.59;;;12.99;100.00
10014;BME280;45684;48.358;10.746;2022-10-16T03:22:49;96241.22;;;12.98;100.00
10014;BME280;45684;48.358;10.746;2022-10-16T03:25:16;96245.88;;;12.97;100.00
10014;BME280;45684;48.358;10.746;2022-10-16T03:27:44;96245.19;;;13.00;100.00
10014;BME280;45684;48.358;10.746;2022-10-16T03:30:12;96256.72;;;12.97;100.00
10014;BME280;45684;48.358;10.746;2022-10-16T03:32:40;96245.06;;;12.97;100.00
10014;BME280;45684;48.358;10.746;2022-10-16T03:35:09;96240.09;;;12.99;100.00
10014;BME280;45684;48.358;10.746;2022-10-16T03:37:37;96232.88;;;13.03;100.00
10014;BME280;45684;48.358;10.746;2022-10-16T03:40:05;96233.69;;;13.03;100.00
10014;BME280;45684;48.358;10.746;2022-10-16T03:42:33;96226.31;;;13.04;100.00
10014;BME280;45684;48.358;10.746;2022-10-16T03:45:01;96236.06;;;13.05;100.00
10014;BME280;45684;48.358;10.746;2022-10-16T03:47:29;96231.91;;;13.08;100.00
10014;BME280;45684;48.358;10.746;2022-10-16T03:49:57;96228.38;;;13.07;100.00
10014;BME280;45684;48.358;10.746;2022-10-16T03:52:26;96234.16;;;13.06;100.00
10014;BME280;45684;48.358;10.746;2022-10-16T03:54:54;96236.06;;;13.05;100.00
10014;BME280;45684;48.358;10.746;2022-10-16T03:57:22;96240.38;;;13.06;100.00
10014;BME280;45684;48.358;10.746;2022-10-16T03:59:50;96246.06;;;13.13;100.00
10014;BME280;45684;48.358;10.746;2022-10-16T04:02:18;96255.00;;;13.14;100.00
10014;BME280;45684;48.358;10.746;2022-10-16T04:04:45;96254.69;;;13.15;100.00
10014;BME280;45684;48.358;10.746;2022-10-16T04:07:13;96248.00;;;13.13;100.00
10014;BME280;45684;48.358;10.746;2022-10-16T04:09:42;96249.44;;;13.10;100.00
10014;BME280;45684;48.358;10.746;2022-10-16T04:12:10;96236.19;;;13.09;100.00
10014;BME280;45684;48.358;10.746;2022-10-16T04:14:38;96247.06;;;13.09;100.00
10014;BME280;45684;48.358;10.746;2022-10-16T04:17:06;96248.31;;;13.11;100.00
10014;BME280;45684;48.358;10.746;2022-10-16T04:19:33;96232.50;;;13.13;100.00
10014;BME280;45684;48.358;10.746;2022-10-16T04:22:01;96239.84;;;13.13;100.00
10014;BME280;45684;48.358;10.746;2022-10-16T04:24:29;96237.91;;;13.13;100.00
10014;BME280;45684;48.358;10.746;2022-10-16T04:26:58;96238.72;;;13.14;100.00
10014;BME280;45684;48.358;10.746;2022-10-16T04:29:26;96244.94;;;13.14;100.00
10014;BME280;45684;48.358;10.746;2022-10-16T04:31:54;96239.06;;;13.12;100.00
10014;BME280;45684;48.358;10.746;2022-10-16T04:34:22;96248.00;;;13.13;100.00
10014;BME280;45684;48.358;10.746;2022-10-16T04:36:49;96237.91;;;13.13;100.00
10014;BME280;45684;48.358;10.746;2022-10-16T04:39:17;96240.63;;;13.13;100.00
10014;BME280;45684;48.358;10.746;2022-10-16T04:41:45;96247.19;;;13.12;100.00
10014;BME280;45684;48.358;10.746;2022-10-16T04:44:14;96251.03;;;13.11;100.00
10014;BME280;45684;48.358;10.746;2022-10-16T04:46:42;96244.69;;;13.07;100.00
10014;BME280;45684;48.358;10.746;2022-10-16T04:49:10;96256.19;;;13.04;100.00
10014;BME280;45684;48.358;10.746;2022-10-16T04:51:38;96251.88;;;13.03;100.00
10014;BME280;45684;48.358;10.746;2022-10-16T04:54:06;96253.03;;;13.02;100.00
10014;BME280;45684;48.358;10.746;2022-10-16T04:56:33;96247.09;;;13.00;100.00
10014;BME280;45684;48.358;10.746;2022-10-16T04:59:06;96250.16;;;12.98;100.00
10014;BME280;45684;48.358;10.746;2022-10-16T05:01:35;96247.78;;;12.97;100.00
10014;BME280;45684;48.358;10.746;2022-10-16T05:04:03;96252.72;;;12.95;100.00
10014;BME280;45684;48.358;10.746;2022-10-16T05:06:31;96249.56;;;12.93;100.00
10014;BME280;45684;48.358;10.746;2022-10-16T05:08:58;96251.69;;;12.87;100.00
10014;BME280;45684;48.358;10.746;2022-10-16T05:11:26;96257.41;;;12.86;100.00
10014;BME280;45684;48.358;10.746;2022-10-16T05:13:54;96255.38;;;12.83;100.00
10014;BME280;45684;48.358;10.746;2022-10-16T05:16:22;96263.53;;;12.83;100.00
10014;BME280;45684;48.358;10.746;2022-10-16T05:18:52;96264.63;;;12.82;100.00
10014;BME280;45684;48.358;10.746;2022-10-16T05:21:35;96251.25;;;12.76;100.00
10014;BME280;45684;48.358;10.746;2022-10-16T05:24:03;96257.66;;;12.72;100.00
10014;BME280;45684;48.358;10.746;2022-10-16T05:26:31;96263.41;;;12.70;100.00
10014;BME280;45684;48.358;10.746;2022-10-16T05:28:59;96266.91;;;12.71;100.00
10014;BME280;45684;48.358;10.746;2022-10-16T05:31:27;96277.31;;;12.69;100.00
10014;BME280;45684;48.358;10.746;2022-10-16T05:33:59;96270.94;;;12.65;100.00
10014;BME280;45684;48.358;10.746;2022-10-16T05:36:27;96276.22;;;12.61;100.00
10014;BME280;45684;48.358;10.746;2022-10-16T05:38:55;96283.09;;;12.59;100.00
10014;BME280;45684;48.358;10.746;2022-10-16T05:41:22;96292.19;;;12.54;100.00
10014;BME280;45684;48.358;10.746;2022-10-16T05:43:52;96294.59;;;12.56;100.00
10014;BME280;45684;48.358;10.746;2022-10-16T05:46:20;96289.66;;;12.49;100.00
10014;BME280;45684;48.358;10.746;2022-10-16T05:48:48;96291.94;;;12.47;100.00
10014;BME280;45684;48.358;10.746;2022-10-16T05:51:17;96305.00;;;12.45;100.00
10014;BME280;45684;48.358;10.746;2022-10-16T05:53:45;96292.56;;;12.44;100.00
10014;BME280;45684;48.358;10.746;2022-10-16T05:56:12;96295.28;;;12.44;100.00
10014;BME280;45684;48.358;10.746;2022-10-16T05:58:41;96298.78;;;12.44;100.00
10014;BME280;45684;48.358;10.746;2022-10-16T06:01:12;96291.31;;;12.41;100.00
10014;BME280;45684;48.358;10.746;2022-10-16T06:03:42;96296.41;;;12.43;100.00
10014;BME280;45684;48.358;10.746;2022-10-16T06:06:12;96297.88;;;12.40;100.00
10014;BME280;45684;48.358;10.746;2022-10-16T06:08:43;96295.94;;;12.41;100.00
10014;BME280;45684;48.358;10.746;2022-10-16T06:11:12;96308.03;;;12.43;100.00
10014;BME280;45684;48.358;10.746;2022-10-16T06:13:40;96302.44;;;12.48;100.00
10014;BME280;45684;48.358;10.746;2022-10-16T06:16:10;96314.09;;;12.49;100.00
10014;BME280;45684;48.358;10.746;2022-10-16T06:18:38;96315.38;;;12.51;100.00
10014;BME280;45684;48.358;10.746;2022-10-16T06:21:10;96308.97;;;12.56;100.00
10014;BME280;45684;48.358;10.746;2022-10-16T06:23:38;96319.97;;;12.60;100.00
10014;BME280;45684;48.358;10.746;2022-10-16T06:26:09;96315.16;;;12.65;100.00
10014;BME280;45684;48.358;10.746;2022-10-16T06:28:38;96316.09;;;12.69;100.00
10014;BME280;45684;48.358;10.746;2022-10-16T06:31:08;96317.50;;;12.75;100.00
10014;BME280;45684;48.358;10.746;2022-10-16T06:33:37;96315.38;;;12.81;100.00
10014;BME280;45684;48.358;10.746;2022-10-16T06:36:07;96326.06;;;12.86;100.00
10014;BME280;45684;48.358;10.746;2022-10-16T06:38:36;96328.59;;;12.91;100.00
10014;BME280;45684;48.358;10.746;2022-10-16T06:41:05;96331.94;;;12.97;100.00
10014;BME280;45684;48.358;10.746;2022-10-16T06:43:34;96329.03;;;13.02;100.00
10014;BME280;45684;48.358;10.746;2022-10-16T06:46:04;96335.06;;;13.08;100.00
10014;BME280;45684;48.358;10.746;2022-10-16T06:48:34;96337.94;;;13.11;100.00
10014;BME280;45684;48.358;10.746;2022-10-16T06:51:03;96338.19;;;13.18;100.00
10014;BME280;45684;48.358;10.746;2022-10-16T06:53:33;96342.34;;;13.24;100.00
10014;BME280;45684;48.358;10.746;2022-10-16T06:56:16;96347.59;;;13.30;100.00
10014;BME280;45684;48.358;10.746;2022-10-16T06:58:46;96345.13;;;13.37;100.00
10014;BME280;45684;48.358;10.746;2022-10-16T07:01:15;96349.38;;;13.46;100.00
10014;BME280;45684;48.358;10.746;2022-10-16T07:03:45;96356.84;;;13.58;100.00
10014;BME280;45684;48.358;10.746;2022-10-16T07:06:15;96367.31;;;13.68;100.00
10014;BME280;45684;48.358;10.746;2022-10-16T07:08:45;96371.69;;;13.82;100.00
10014;BME280;45684;48.358;10.746;2022-10-16T07:11:14;96367.13;;;13.94;100.00
10014;BME280;45684;48.358;10.746;2022-10-16T07:13:43;96374.19;;;14.08;100.00
10014;BME280;45684;48.358;10.746;2022-10-16T07:16:21;96378.88;;;14.19;100.00
10014;BME280;45684;48.358;10.746;2022-10-16T07:18:49;96375.41;;;14.31;100.00
10014;BME280;45684;48.358;10.746;2022-10-16T07:21:21;96378.84;;;14.40;100.00
10014;BME280;45684;48.358;10.746;2022-10-16T07:23:52;96384.34;;;14.52;100.00
10014;BME280;45684;48.358;10.746;2022-10-16T07:26:20;96377.03;;;14.65;100.00
10014;BME280;45684;48.358;10.746;2022-10-16T07:28:48;96387.13;;;14.77;100.00
10014;BME280;45684;48.358;10.746;2022-10-16T07:31:20;96399.84;;;14.85;100.00
10014;BME280;45684;48.358;10.746;2022-10-16T07:33:48;96396.91;;;14.90;100.00
10014;BME280;45684;48.358;10.746;2022-10-16T07:36:18;96393.53;;;14.93;100.00
10014;BME280;45684;48.358;10.746;2022-10-16T07:38:46;96394.88;;;14.99;100.00
10014;BME280;45684;48.358;10.746;2022-10-16T07:41:16;96403.31;;;15.07;100.00
10014;BME280;45684;48.358;10.746;2022-10-16T07:43:45;96393.19;;;15.19;100.00
10014;BME280;45684;48.358;10.746;2022-10-16T07:46:14;96409.91;;;15.30;100.00
10014;BME280;45684;48.358;10.746;2022-10-16T07:48:44;96410.66;;;15.43;100.00
10014;BME280;45684;48.358;10.746;2022-10-16T07:51:14;96413.06;;;15.56;100.00
10014;BME280;45684;48.358;10.746;2022-10-16T07:53:42;96420.91;;;15.70;100.00
10014;BME280;45684;48.358;10.746;2022-10-16T07:56:10;96433.03;;;15.85;100.00
10014;BME280;45684;48.358;10.746;2022-10-16T07:58:38;96424.97;;;16.01;100.00
10014;BME280;45684;48.358;10.746;2022-10-16T08:01:08;96428.78;;;16.12;100.00
10014;BME280;45684;48.358;10.746;2022-10-16T08:03:37;96437.63;;;16.21;100.00
10014;BME280;45684;48.358;10.746;2022-10-16T08:06:06;96437.47;;;16.30;100.00
10014;BME280;45684;48.358;10.746;2022-10-16T08:08:34;96441.41;;;16.45;100.00
10014;BME280;45684;48.358;10.746;2022-10-16T08:11:02;96436.34;;;16.59;100.00
10014;BME280;45684;48.358;10.746;2022-10-16T08:13:30;96436.97;;;16.68;100.00
10014;BME280;45684;48.358;10.746;2022-10-16T08:15:58;96437.22;;;16.75;100.00
10014;BME280;45684;48.358;10.746;2022-10-16T08:18:26;96433.09;;;16.81;100.00
10014;BME280;45684;48.358;10.746;2022-10-16T08:20:58;96432.31;;;16.97;100.00
10014;BME280;45684;48.358;10.746;2022-10-16T08:23:28;96429.88;;;17.23;100.00
10014;BME280;45684;48.358;10.746;2022-10-16T08:26:02;96433.19;;;17.48;100.00
10014;BME280;45684;48.358;10.746;2022-10-16T08:28:31;96437.00;;;17.75;100.00
10014;BME280;45684;48.358;10.746;2022-10-16T08:31:05;96438.34;;;18.01;100.00
10014;BME280;45684;48.358;10.746;2022-10-16T08:33:33;96456.84;;;18.23;100.00
10014;BME280;45684;48.358;10.746;2022-10-16T08:36:03;96460.38;;;18.43;100.00
10014;BME280;45684;48.358;10.746;2022-10-16T08:38:32;96464.78;;;18.67;100.00
10014;BME280;45684;48.358;10.746;2022-10-16T08:41:18;96466.44;;;18.91;100.00
10014;BME280;45684;48.358;10.746;2022-10-16T08:44:07;96472.03;;;19.18;100.00
10014;BME280;45684;48.358;10.746;2022-10-16T08:46:43;96466.97;;;19.43;100.00
10014;BME280;45684;48.358;10.746;2022-10-16T08:49:16;96489.53;;;19.78;100.00
10014;BME280;45684;48.358;10.746;2022-10-16T08:51:44;96477.34;;;20.02;100.00
10014;BME280;45684;48.358;10.746;2022-10-16T08:54:23;96489.91;;;20.30;100.00
10014;BME280;45684;48.358;10.746;2022-10-16T08:56:54;96499.03;;;20.37;97.83
10014;BME280;45684;48.358;10.746;2022-10-16T08:59:22;96506.19;;;20.46;99.77
10014;BME280;45684;48.358;10.746;2022-10-16T09:01:51;96498.34;;;20.44;99.12
10014;BME280;45684;48.358;10.746;2022-10-16T09:04:41;96498.03;;;20.49;99.08
10014;BME280;45684;48.358;10.746;2022-10-16T09:07:16;96492.34;;;20.65;97.15
10014;BME280;45684;48.358;10.746;2022-10-16T09:10:09;96508.66;;;20.81;98.26
10014;BME280;45684;48.358;10.746;2022-10-16T09:12:42;96506.91;;;20.99;98.58
10014;BME280;45684;48.358;10.746;2022-10-16T09:15:20;96507.47;;;21.15;95.26
10014;BME280;45684;48.358;10.746;2022-10-16T09:17:56;96509.09;;;21.20;93.75
10014;BME280;45684;48.358;10.746;2022-10-16T09:20:31;96508.34;;;21.23;93.02
10014;BME280;45684;48.358;10.746;2022-10-16T09:23:12;96502.59;;;21.35;93.81
10014;BME280;45684;48.358;10.746;2022-10-16T09:25:44;96515.22;;;21.40;93.65
10014;BME280;45684;48.358;10.746;2022-10-16T09:28:14;96525.50;;;21.47;92.59
10014;BME280;45684;48.358;10.746;2022-10-16T09:30:43;96524.69;;;21.43;94.57
10014;BME280;45684;48.358;10.746;2022-10-16T09:33:12;96526.25;;;21.44;96.67
10014;BME280;45684;48.358;10.746;2022-10-16T09:35:43;96524.34;;;21.48;99.08
10014;BME280;45684;48.358;10.746;2022-10-16T09:38:22;96523.25;;;21.56;96.81
10014;BME280;45684;48.358;10.746;2022-10-16T09:40:51;96515.81;;;21.60;99.42
10014;BME280;45684;48.358;10.746;2022-10-16T09:43:33;96525.22;;;21.59;98.17
10014;BME280;45684;48.358;10.746;2022-10-16T09:46:04;96526.81;;;21.60;99.38
10014;BME280;45684;48.358;10.746;2022-10-16T09:48:37;96520.09;;;21.57;100.00
10014;BME280;45684;48.358;10.746;2022-10-16T09:51:16;96523.69;;;21.61;94.77
10014;BME280;45684;48.358;10.746;2022-10-16T09:53:47;96526.84;;;21.63;94.49
10014;BME280;45684;48.358;10.746;2022-10-16T09:56:23;96533.03;;;21.50;96.98
10014;BME280;45684;48.358;10.746;2022-10-16T09:58:52;96529.09;;;21.51;94.11
10014;BME280;45684;48.358;10.746;2022-10-16T10:01:22;96531.06;;;21.50;94.60
10014;BME280;45684;48.358;10.746;2022-10-16T10:03:55;96525.56;;;21.54;95.79
10014;BME280;45684;48.358;10.746;2022-10-16T10:09:00;96528.44;;;21.68;96.39
10014;BME280;45684;48.358;10.746;2022-10-16T10:11:45;96532.03;;;21.72;96.65
10014;BME280;45684;48.358;10.746;2022-10-16T10:14:20;96531.38;;;21.86;95.70
10014;BME280;45684;48.358;10.746;2022-10-16T10:16:49;96531.47;;;21.97;93.50
10014;BME280;45684;48.358;10.746;2022-10-16T10:19:19;96529.88;;;21.96;91.60
10014;BME280;45684;48.358;10.746;2022-10-16T10:21:47;96533.06;;;21.98;91.93
10014;BME280;45684;48.358;10.746;2022-10-16T10:24:17;96539.38;;;22.05;92.03
10014;BME280;45684;48.358;10.746;2022-10-16T10:26:54;96546.22;;;22.15;92.02
10014;BME280;45684;48.358;10.746;2022-10-16T10:29:40;96539.47;;;22.12;92.75
10014;BME280;45684;48.358;10.746;2022-10-16T10:32:21;96549.41;;;22.24;89.70
10014;BME280;45684;48.358;10.746;2022-10-16T10:35:03;96549.84;;;22.33;89.01
10014;BME280;45684;48.358;10.746;2022-10-16T10:37:51;96549.88;;;22.37;88.74
10014;BME280;45684;48.358;10.746;2022-10-16T10:40:29;96562.97;;;22.51;86.00
10014;BME280;45684;48.358;10.746;2022-10-16T10:43:03;96556.03;;;22.78;84.85
10014;BME280;45684;48.358;10.746;2022-10-16T10:45:38;96550.66;;;23.00;83.32
10014;BME280;45684;48.358;10.746;2022-10-16T10:48:31;96545.16;;;23.07;82.39
10014;BME280;45684;48.358;10.746;2022-10-16T10:51:12;96546.66;;;22.94;78.51
10014;BME280;45684;48.358;10.746;2022-10-16T10:53:47;96537.63;;;22.97;78.89
10014;BME280;45684;48.358;10.746;2022-10-16T10:56:40;96545.88;;;22.93;76.55
10014;BME280;45684;48.358;10.746;2022-10-16T10:59:37;96530.94;;;22.98;79.77
10014;BME280;45684;48.358;10.746;2022-10-16T11:02:17;96538.03;;;22.99;78.78
10014;BME280;45684;48.358;10.746;2022-10-16T11:08:10;96535.69;;;23.08;78.39
10014;BME280;45684;48.358;10.746;2022-10-16T11:10:44;96534.97;;;23.18;77.18
10014;BME280;45684;48.358;10.746;2022-10-16T11:13:27;96527.84;;;23.13;75.04
10014;BME280;45684;48.358;10.746;2022-10-16T11:15:58;96533.41;;;23.28;74.88
10014;BME280;45684;48.358;10.746;2022-10-16T11:18:32;96516.84;;;23.35;76.79
10014;BME280;45684;48.358;10.746;2022-10-16T11:21:07;96527.84;;;23.21;76.09
10014;BME280;45684;48.358;10.746;2022-10-16T11:23:40;96525.50;;;23.19;77.62
10014;BME280;45684;48.358;10.746;2022-10-16T11:26:14;96526.38;;;23.52;77.10
10014;BME280;45684;48.358;10.746;2022-10-16T11:28:46;96528.00;;;23.85;73.99
10014;BME280;45684;48.358;10.746;2022-10-16T11:31:20;96524.06;;;24.07;71.99
10014;BME280;45684;48.358;10.746;2022-10-16T11:33:55;96527.22;;;23.99;74.12
10014;BME280;45684;48.358;10.746;2022-10-16T11:36:32;96526.44;;;23.95;71.76
10014;BME280;45684;48.358;10.746;2022-10-16T11:39:04;96527.22;;;23.99;72.23
10014;BME280;45684;48.358;10.746;2022-10-16T11:41:41;96522.09;;;24.08;70.20
10014;BME280;45684;48.358;10.746;2022-10-16T11:44:19;96524.03;;;24.18;69.24
10014;BME280;45684;48.358;10.746;2022-10-16T11:46:52;96514.56;;;24.23;69.73
10014;BME280;45684;48.358;10.746;2022-10-16T11:49:47;96513.00;;;24.18;69.12
10014;BME280;45684;48.358;10.746;2022-10-16T11:52:20;96510.59;;;24.27;68.18
10014;BME280;45684;48.358;10.746;2022-10-16T11:54:56;96517.72;;;24.35;66.73
10014;BME280;45684;48.358;10.746;2022-10-16T11:57:28;96514.94;;;24.28;65.54
10014;BME280;45684;48.358;10.746;2022-10-16T11:59:58;96514.56;;;24.40;66.40
10014;BME280;45684;48.358;10.746;2022-10-16T12:02:48;96511.78;;;24.48;67.42
10014;BME280;45684;48.358;10.746;2022-10-16T12:05:23;96505.88;;;24.38;68.18
10014;BME280;45684;48.358;10.746;2022-10-16T12:08:02;96507.47;;;24.39;67.38
10014;BME280;45684;48.358;10.746;2022-10-16T12:10:31;96492.41;;;24.55;67.15
10014;BME280;45684;48.358;10.746;2022-10-16T12:13:29;96493.16;;;24.66;65.22
10014;BME280;45684;48.358;10.746;2022-10-16T12:16:19;96492.78;;;24.64;65.13
10014;BME280;45684;48.358;10.746;2022-10-16T12:18:50;96492.34;;;24.69;68.79
10014;BME280;45684;48.358;10.746;2022-10-16T12:21:30;96498.63;;;24.80;62.73
10014;BME280;45684;48.358;10.746;2022-10-16T12:24:00;96493.03;;;24.94;60.57
10014;BME280;45684;48.358;10.746;2022-10-16T12:26:32;96497.28;;;25.28;60.23
10014;BME280;45684;48.358;10.746;2022-10-16T12:29:23;96492.25;;;25.64;52.99
10014;BME280;45684;48.358;10.746;2022-10-16T12:31:53;96493.00;;;25.79;50.02
10014;BME280;45684;48.358;10.746;2022-10-16T12:34:29;96497.16;;;26.01;49.30
10014;BME280;45684;48.358;10.746;2022-10-16T12:37:09;96485.09;;;26.22;48.22
10014;BME280;45684;48.358;10.746;2022-10-16T12:39:37;96486.97;;;26.32;47.95
10014;BME280;45684;48.358;10.746;2022-10-16T12:42:20;96490.81;;;26.45;51.37
10014;BME280;45684;48.358;10.746;2022-10-16T12:44:48;96490.78;;;26.49;47.88
10014;BME280;45684;48.358;10.746;2022-10-16T12:47:21;96488.72;;;26.53;48.32
10014;BME280;45684;48.358;10.746;2022-10-16T12:49:52;96489.25;;;26.41;50.44
10014;BME280;45684;48.358;10.746;2022-10-16T12:52:25;96488.53;;;26.33;49.46
10014;BME280;45684;48.358;10.746;2022-10-16T12:54:56;96488.91;;;26.35;50.37
10014;BME280;45684;48.358;10.746;2022-10-16T12:57:36;96485.00;;;26.29;49.99
10014;BME280;45684;48.358;10.746;2022-10-16T13:00:17;96496.94;;;26.26;51.88
10014;BME280;45684;48.358;10.746;2022-10-16T13:06:00;96490.81;;;26.01;50.95
10014;BME280;45684;48.358;10.746;2022-10-16T13:08:51;96491.72;;;25.87;52.04
10014;BME280;45684;48.358;10.746;2022-10-16T13:11:31;96499.34;;;25.72;51.53
10014;BME280;45684;48.358;10.746;2022-10-16T13:14:11;96502.50;;;25.74;50.29
10014;BME280;45684;48.358;10.746;2022-10-16T13:16:54;96501.00;;;25.62;52.04